Main page
METAR-TAF:

METAR-TAF

Airports :

Badajoz Airport

Badajoz, Spain

latitude: 38-53N, longitude: 006-49W, elevation: 185 m

Current weather observation

The report was made 1 hour and 4 minutes ago, at 18:00 UTC
Wind 4 kt from the South/Southwest
Temperature 12°C
Humidity 82%
Pressure 1013 hPa
Visibility 10 km or more
Few clouds at a height of 4900 ft

METAR: LEBZ 211800Z 20004KT 9999 FEW049 12/09 Q1013

Time: 20:04 (19:04 UTC)

Forecast

The report was made 2 hours and 4 minutes ago, at 17:00 UTC
Forecast valid from 21 at 18 UTC to 22 at 18 UTC
Wind 5 kt from the Southwest
Visibility 10 km or more
Few clouds at a height of 4000 ft
Probability 30% :
Temporary
from 22 at 04 UTC to 22 at 18 UTC
Visibility: 3000 m
Broken clouds at a height of 1000 ft
rain, mist

TAF: LEBZ 211700Z 2118/2218 23005KT 9999 FEW040 TX15/2215Z TN06/2206Z PROB30 TEMPO 2204/2218 3000 RA BR BKN010

Weather observations and forecasts of more than 4000 airports (METAR and TAF reports).

The available stations are represented by yellow and red dots on the map.

Hover mouse over dot to see the name of the station.

Then click to see weather observations and forecasts.

To change the map : click on the green buttons with a black cross to zoom in, on the green button with a dash to zoom out, or on the green arrows for adjacent maps.


METAR-TAF: